KGLE/GLE METAR and TAF weather

Enter ICAO airport designator
Station Type Date Time Source
KGLE METAR 2019/12/07 14:55 UTC NOAA

KGLE 071455Z AUTO 35004KT 10SM CLR 05/01 A3035 RMK AO2 T00500008


Station Type Date Time Source
KGLE Decoded METAR 2019/12/07 14:55 UTC NOAA

Gainesville, Gainesville Municipal Airport, TX, United States (KGLE) 33-39-05N 097-11-49W
Dec 07, 2019 - 09:55 AM EST / 2019.12.07 1455 UTC
Wind: from the N (350 degrees) at 5 MPH (4 KT):0
Visibility: 10 mile(s):0
Sky conditions: clear
Temperature: 41.0 F (5.0 C)
Dew Point: 33.4 F (0.8 C)
Relative Humidity: 74%
Pressure (altimeter): 30.35 in. Hg (1027 hPa)
ob: KGLE 071455Z AUTO 35004KT 10SM CLR 05/01 A3035 RMK AO2 T00500008
cycle: 15

Station Type Date Time Source
KGLE TAF UTC NOAA

Error!

Example: see airport list